Terminal Aerodrome Forecast
Issued by NWS Cleveland, OH

Home | Current Version | Previous Version | Graphics & Text | Print | Product List | Glossary On
Versions: 1 2 3 4 5 6 7 8 9 10 11 12 13 14 15 16 17
802
FTUS41 KCLE 201722
TAFCAK
TAF
KCAK 201722Z 2018/2118 28012G18KT P6SM BKN050
     FM210100 25006KT P6SM VCSH SCT050 BKN100
     FM211000 24004KT P6SM BKN040=

USA.gov is the U.S. government's official web portal to all federal, state and local government web resources and services.